createdAt,value
2017-11-22T00:01:09.353Z,1.90
2017-11-22T00:03:38.061Z,1.60
2017-11-22T00:06:06.368Z,3.60
2017-11-22T00:08:34.734Z,1.83
2017-11-22T00:11:03.102Z,2.40
2017-11-22T00:13:31.389Z,2.30
2017-11-22T00:18:35.194Z,2.43
2017-11-22T00:21:03.532Z,1.70
2017-11-22T00:23:31.845Z,1.93
2017-11-22T00:26:00.158Z,2.20
2017-11-22T00:28:28.561Z,1.50
2017-11-22T00:30:56.871Z,1.70
2017-11-22T00:33:25.213Z,1.80
2017-11-22T00:35:53.520Z,2.20
2017-11-22T00:38:21.817Z,1.77
2017-11-22T00:40:50.181Z,2.53
2017-11-22T00:43:18.836Z,2.13
2017-11-22T00:45:47.219Z,1.93
2017-11-22T00:48:16.514Z,3.23
2017-11-22T00:50:44.821Z,2.33
2017-11-22T00:53:13.203Z,1.57
2017-11-22T00:55:41.520Z,2.27
2017-11-22T00:58:09.840Z,1.70
2017-11-22T01:00:38.282Z,2.00
2017-11-22T01:03:06.584Z,2.37
2017-11-22T01:05:34.907Z,2.20
2017-11-22T01:08:03.254Z,2.00
2017-11-22T01:10:31.618Z,2.10
2017-11-22T01:12:59.930Z,1.77
2017-11-22T01:15:28.373Z,2.43
2017-11-22T01:17:56.770Z,2.83
2017-11-22T01:20:25.069Z,2.33
2017-11-22T01:22:53.435Z,1.60
2017-11-22T01:25:21.754Z,2.53
2017-11-22T01:27:50.155Z,2.00
2017-11-22T01:30:19.271Z,1.97
2017-11-22T01:32:47.571Z,1.90
2017-11-22T01:35:15.882Z,1.30
2017-11-22T01:37:44.301Z,1.90
2017-11-22T01:40:12.626Z,1.57
2017-11-22T01:42:41.141Z,1.40
2017-11-22T01:45:09.491Z,1.70
2017-11-22T01:47:37.901Z,3.50
2017-11-22T01:50:06.197Z,2.03
2017-11-22T01:52:34.657Z,3.30
2017-11-22T01:55:03.054Z,2.10
2017-11-22T01:57:31.407Z,1.60
2017-11-22T01:59:59.769Z,2.50
2017-11-22T02:02:28.072Z,2.20
2017-11-22T02:04:56.407Z,1.80
2017-11-22T02:07:24.837Z,1.77
2017-11-22T02:09:53.135Z,1.43
2017-11-22T02:12:21.441Z,1.53
2017-11-22T02:14:49.784Z,1.97
2017-11-22T02:17:18.091Z,1.57
2017-11-22T02:19:46.403Z,1.90
2017-11-22T02:22:14.758Z,1.60
2017-11-22T02:24:43.073Z,2.00
2017-11-22T02:27:11.382Z,1.70
2017-11-22T02:29:39.733Z,1.90
2017-11-22T02:32:08.085Z,3.07
2017-11-22T02:34:36.403Z,1.77
2017-11-22T02:37:04.741Z,2.07
2017-11-22T02:39:33.054Z,1.60
2017-11-22T02:42:01.364Z,2.10
2017-11-22T02:44:29.685Z,2.37
2017-11-22T02:46:58.037Z,2.10
2017-11-22T02:49:26.366Z,2.53
2017-11-22T02:51:54.706Z,1.47
2017-11-22T02:54:22.992Z,1.77
2017-11-22T02:56:51.391Z,1.80
2017-11-22T02:59:19.706Z,2.23
2017-11-22T03:01:48.060Z,1.93
2017-11-22T03:04:16.385Z,1.80
2017-11-22T03:06:44.736Z,2.30
2017-11-22T03:09:13.056Z,1.90
2017-11-22T03:11:41.397Z,2.17
2017-11-22T03:14:09.745Z,1.57
2017-11-22T03:16:38.057Z,2.33
2017-11-22T03:19:06.396Z,2.30
2017-11-22T03:21:34.724Z,2.20
2017-11-22T03:24:03.039Z,1.83
2017-11-22T03:26:31.377Z,1.67
2017-11-22T03:28:59.690Z,1.30
2017-11-22T03:31:28.016Z,2.87
2017-11-22T03:33:56.468Z,1.70
2017-11-22T03:36:24.805Z,1.90
2017-11-22T03:38:53.226Z,2.27
2017-11-22T03:41:21.583Z,1.60
2017-11-22T03:43:49.893Z,2.37
2017-11-22T03:46:18.239Z,1.40
2017-11-22T03:48:47.453Z,1.90
2017-11-22T03:54:23.966Z,2.03
2017-11-22T03:56:52.253Z,1.40
2017-11-22T03:59:20.577Z,1.67
2017-11-22T04:01:49.825Z,1.90
2017-11-22T04:04:20.948Z,1.90
2017-11-22T04:06:49.349Z,1.87
2017-11-22T04:09:17.871Z,2.83
2017-11-22T04:11:46.226Z,1.80
2017-11-22T04:14:14.592Z,2.40
2017-11-22T04:16:42.955Z,2.60
2017-11-22T04:19:16.863Z,2.40
2017-11-22T04:21:45.171Z,1.50
2017-11-22T04:24:13.488Z,1.23
2017-11-22T04:26:41.828Z,2.50
2017-11-22T04:29:10.145Z,3.60
2017-11-22T04:31:38.461Z,2.50
2017-11-22T04:34:06.835Z,1.80
2017-11-22T04:36:35.160Z,2.10
2017-11-22T04:39:03.489Z,2.53
2017-11-22T04:41:31.842Z,2.47
2017-11-22T04:44:00.203Z,2.23
2017-11-22T04:46:28.521Z,2.17
2017-11-22T04:48:56.958Z,2.97
2017-11-22T04:51:25.257Z,2.07
2017-11-22T04:53:53.598Z,2.33
2017-11-22T04:56:21.925Z,2.30
2017-11-22T04:58:50.251Z,2.90
2017-11-22T05:01:18.577Z,1.97
2017-11-22T05:03:46.892Z,3.20
2017-11-22T05:06:15.252Z,2.33
2017-11-22T05:08:43.562Z,2.10
2017-11-22T05:11:11.917Z,2.50
2017-11-22T05:13:40.283Z,2.10
2017-11-22T05:16:08.598Z,1.73
2017-11-22T05:18:36.912Z,3.33
2017-11-22T05:21:05.246Z,2.23
2017-11-22T05:23:33.545Z,2.30
2017-11-22T05:26:01.916Z,2.17
2017-11-22T05:28:30.234Z,2.50
2017-11-22T05:30:58.561Z,1.97
2017-11-22T05:33:26.908Z,1.90
2017-11-22T05:35:55.329Z,2.50
2017-11-22T05:38:24.687Z,2.37
2017-11-22T05:40:53.417Z,2.17
2017-11-22T05:43:21.730Z,2.07
2017-11-22T05:45:50.205Z,1.90
2017-11-22T05:48:18.491Z,3.13
2017-11-22T05:50:46.868Z,3.00
2017-11-22T05:53:15.206Z,2.30
2017-11-22T05:55:43.582Z,2.20
2017-11-22T05:58:12.061Z,2.40
2017-11-22T06:00:46.101Z,2.57
2017-11-22T06:03:14.394Z,2.97
2017-11-22T06:05:42.704Z,2.53
2017-11-22T06:08:11.093Z,3.37
2017-11-22T06:10:39.397Z,3.40
2017-11-22T06:13:07.693Z,2.40
2017-11-22T06:15:36.029Z,2.30
2017-11-22T06:18:04.366Z,2.70
2017-11-22T06:20:32.722Z,2.33
2017-11-22T06:23:01.309Z,2.50
2017-11-22T06:25:29.633Z,2.60
2017-11-22T06:27:58.140Z,3.03
2017-11-22T06:30:31.346Z,2.87
2017-11-22T06:32:59.753Z,2.70
2017-11-22T06:35:28.065Z,2.80
2017-11-22T06:37:56.385Z,2.60
2017-11-22T06:40:24.918Z,2.50
2017-11-22T06:42:55.148Z,2.43
2017-11-22T06:45:23.946Z,2.70
2017-11-22T06:47:52.485Z,2.83
2017-11-22T06:50:20.885Z,2.77
2017-11-22T06:52:49.279Z,2.67
2017-11-22T06:55:17.641Z,2.57
2017-11-22T06:57:45.946Z,2.50
2017-11-22T07:00:14.312Z,1.90
2017-11-22T07:02:46.655Z,2.37
2017-11-22T07:05:15.049Z,2.63
2017-11-22T07:07:43.437Z,2.43
2017-11-22T07:10:11.940Z,2.93
2017-11-22T07:12:40.961Z,1.70
2017-11-22T07:15:10.393Z,2.20
2017-11-22T07:17:41.342Z,2.43
2017-11-22T07:20:09.750Z,2.23
2017-11-22T07:22:38.180Z,2.17
2017-11-22T07:25:06.547Z,2.23
2017-11-22T07:27:34.891Z,2.23
2017-11-22T07:30:03.256Z,2.90
2017-11-22T07:32:31.617Z,2.50
2017-11-22T07:34:59.930Z,2.47
2017-11-22T07:37:33.829Z,2.13
2017-11-22T07:40:02.156Z,2.03
2017-11-22T07:42:30.452Z,2.00
2017-11-22T07:44:59.426Z,2.80
2017-11-22T07:47:27.745Z,2.30
2017-11-22T07:49:57.495Z,1.93
2017-11-22T07:52:28.253Z,2.30
2017-11-22T07:54:56.621Z,2.57
2017-11-22T07:57:26.754Z,1.70
2017-11-22T07:59:55.202Z,2.30
2017-11-22T08:02:23.886Z,2.47
2017-11-22T08:04:52.282Z,2.30
2017-11-22T08:07:20.663Z,2.07
2017-11-22T08:09:49.078Z,1.87
2017-11-22T08:12:17.386Z,1.63
2017-11-22T08:14:45.769Z,2.23
2017-11-22T08:17:14.127Z,1.63
2017-11-22T08:19:42.496Z,2.00
2017-11-22T08:22:12.054Z,1.60
2017-11-22T08:24:40.373Z,2.30
2017-11-22T08:27:08.729Z,2.67
2017-11-22T08:29:37.078Z,2.40
2017-11-22T08:32:05.393Z,2.10
2017-11-22T08:34:33.771Z,1.90
2017-11-22T08:37:02.125Z,1.57
2017-11-22T08:39:32.220Z,1.67
2017-11-22T08:42:06.883Z,2.17
2017-11-22T08:44:40.894Z,1.73
2017-11-22T08:47:09.280Z,1.87
2017-11-22T08:49:37.646Z,1.93
2017-11-22T08:52:05.974Z,1.93
2017-11-22T08:54:40.201Z,2.70
2017-11-22T08:57:14.199Z,2.40
2017-11-22T08:59:45.731Z,2.10
2017-11-22T09:02:14.108Z,2.60
2017-11-22T09:04:42.440Z,3.80
2017-11-22T09:07:12.807Z,2.47
2017-11-22T09:09:41.163Z,2.13
2017-11-22T09:12:16.463Z,3.33
2017-11-22T09:14:44.764Z,1.80
2017-11-22T09:17:19.642Z,2.03
2017-11-22T09:19:47.997Z,2.27
2017-11-22T09:22:16.320Z,3.00
2017-11-22T09:24:50.219Z,1.60
2017-11-22T09:27:24.152Z,2.70
2017-11-22T09:29:57.497Z,2.80
2017-11-22T09:32:31.273Z,1.67
2017-11-22T09:35:05.176Z,1.73
2017-11-22T09:37:33.538Z,2.33
2017-11-22T09:42:39.402Z,2.30
2017-11-22T09:45:07.735Z,2.30
2017-11-22T09:47:36.122Z,1.53
2017-11-22T09:50:04.674Z,1.80
2017-11-22T09:52:33.125Z,3.27
2017-11-22T09:55:01.465Z,3.37
2017-11-22T09:57:29.820Z,1.97
2017-11-22T09:59:58.135Z,2.10
2017-11-22T10:02:26.441Z,2.23
2017-11-22T10:04:54.779Z,1.53
2017-11-22T10:07:23.083Z,2.57
2017-11-22T10:09:51.401Z,2.60
2017-11-22T10:12:20.026Z,1.60
2017-11-22T10:14:48.336Z,1.87
2017-11-22T10:17:16.645Z,2.60
2017-11-22T10:19:50.653Z,1.60
2017-11-22T10:22:19.018Z,1.90
2017-11-22T10:24:47.419Z,2.90
2017-11-22T10:27:22.459Z,1.70
2017-11-22T10:29:50.800Z,1.30
2017-11-22T10:32:21.136Z,3.13
2017-11-22T10:34:49.595Z,2.43
2017-11-22T10:37:17.923Z,1.30
2017-11-22T10:39:46.285Z,1.40
2017-11-22T10:42:14.747Z,3.10
2017-11-22T10:44:43.202Z,1.37
2017-11-22T10:47:11.998Z,1.50
2017-11-22T10:49:41.364Z,1.40
2017-11-22T10:52:09.974Z,2.00
2017-11-22T10:54:38.635Z,1.20
2017-11-22T10:57:06.933Z,1.40
2017-11-22T10:59:35.291Z,2.13
2017-11-22T11:02:03.634Z,1.90
2017-11-22T11:04:31.964Z,1.67
2017-11-22T11:07:00.306Z,1.70
2017-11-22T11:09:28.855Z,1.80
2017-11-22T11:11:57.175Z,2.10
2017-11-22T11:14:25.625Z,2.47
2017-11-22T11:16:53.979Z,2.60
2017-11-22T11:19:22.376Z,1.90
2017-11-22T11:21:50.797Z,1.60
2017-11-22T11:24:19.273Z,1.57
2017-11-22T11:26:47.760Z,1.93
2017-11-22T11:29:16.095Z,1.80
2017-11-22T11:31:45.648Z,2.10
2017-11-22T11:34:14.014Z,1.70
2017-11-22T11:36:42.471Z,1.63
2017-11-22T11:39:10.858Z,1.93
2017-11-22T11:41:39.182Z,3.13
2017-11-22T11:44:07.580Z,1.63
2017-11-22T11:46:36.136Z,1.70
2017-11-22T11:49:04.534Z,1.60
2017-11-22T11:51:33.002Z,2.13
2017-11-22T11:54:06.644Z,1.13
2017-11-22T11:56:35.270Z,2.07
2017-11-22T11:59:03.588Z,1.80
2017-11-22T12:01:31.961Z,2.03
2017-11-22T12:04:01.280Z,2.00
2017-11-22T12:06:29.710Z,1.50
2017-11-22T12:08:58.122Z,2.13
2017-11-22T12:11:28.374Z,2.03
2017-11-22T12:13:56.856Z,1.87
2017-11-22T12:16:25.228Z,1.67
2017-11-22T12:18:53.582Z,1.97
2017-11-22T12:21:26.831Z,2.07
2017-11-22T12:24:01.220Z,1.50
2017-11-22T12:26:29.619Z,1.90
2017-11-22T12:28:57.988Z,2.10
2017-11-22T12:31:26.440Z,1.93
2017-11-22T12:33:54.829Z,1.47
2017-11-22T12:36:23.507Z,2.07
2017-11-22T12:38:51.966Z,1.20
2017-11-22T12:41:21.307Z,1.90
2017-11-22T12:43:49.705Z,2.10
2017-11-22T12:46:18.132Z,1.10
2017-11-22T12:48:46.728Z,2.83
2017-11-22T12:51:15.197Z,2.10
2017-11-22T12:53:43.566Z,1.70
2017-11-22T12:56:12.296Z,2.10
2017-11-22T12:58:40.633Z,1.90
2017-11-22T13:01:09.391Z,1.50
2017-11-22T13:03:38.029Z,1.83
2017-11-22T13:06:06.376Z,1.73
2017-11-22T13:08:34.705Z,1.60
2017-11-22T13:11:09.423Z,2.67
2017-11-22T13:13:38.025Z,1.47
2017-11-22T13:16:06.469Z,1.77
2017-11-22T13:18:34.906Z,2.80
2017-11-22T13:21:03.269Z,1.97
2017-11-22T13:23:31.610Z,2.13
2017-11-22T13:26:00.434Z,0.97
2017-11-22T13:28:28.874Z,1.70
2017-11-22T13:30:57.309Z,1.60
2017-11-22T13:33:25.747Z,1.67
2017-11-22T13:35:54.148Z,2.27
2017-11-22T13:38:22.905Z,1.70
2017-11-22T13:40:51.303Z,1.60
2017-11-22T13:43:19.827Z,1.50
2017-11-22T13:45:49.179Z,1.60
2017-11-22T13:48:17.818Z,1.50
2017-11-22T13:50:46.264Z,1.83
2017-11-22T13:53:14.910Z,1.87
2017-11-22T13:55:43.257Z,2.10
2017-11-22T13:58:12.045Z,1.63
2017-11-22T14:00:41.110Z,1.03
2017-11-22T14:03:10.725Z,1.50
2017-11-22T14:05:39.111Z,1.47
2017-11-22T14:08:07.450Z,2.17
2017-11-22T14:10:35.964Z,1.33
2017-11-22T14:13:04.362Z,1.50
2017-11-22T14:15:32.825Z,3.23
2017-11-22T14:18:01.343Z,5.30
2017-11-22T14:20:29.808Z,3.37
2017-11-22T14:22:58.164Z,4.07
2017-11-22T14:25:26.593Z,4.50
2017-11-22T14:27:54.925Z,4.83
2017-11-22T14:30:23.340Z,7.90
2017-11-22T14:32:51.754Z,6.33
2017-11-22T14:35:20.356Z,2.77
2017-11-22T14:37:48.670Z,2.60
2017-11-22T14:40:17.057Z,2.23
2017-11-22T14:42:45.498Z,3.20
2017-11-22T14:45:13.939Z,1.73
2017-11-22T14:47:42.864Z,1.50
2017-11-22T14:50:11.234Z,1.50
2017-11-22T14:52:39.604Z,2.43
2017-11-22T14:55:07.944Z,1.47
2017-11-22T14:57:36.353Z,1.53
2017-11-22T15:00:05.142Z,1.70
2017-11-22T15:02:34.375Z,1.90
2017-11-22T15:05:02.753Z,1.90
2017-11-22T15:07:31.128Z,1.93
2017-11-22T15:09:59.476Z,2.20
2017-11-22T15:12:27.926Z,1.83
2017-11-22T15:14:57.098Z,1.37
2017-11-22T15:17:26.691Z,2.00
2017-11-22T15:19:55.175Z,1.93
2017-11-22T15:22:23.665Z,2.10
2017-11-22T15:24:53.361Z,2.60
2017-11-22T15:27:21.793Z,2.20
2017-11-22T15:29:50.370Z,2.97
2017-11-22T15:32:18.792Z,2.10
2017-11-22T15:34:47.778Z,2.00
2017-11-22T15:37:16.643Z,2.63
2017-11-22T15:39:44.986Z,3.53
2017-11-22T15:42:13.301Z,3.47
2017-11-22T15:44:41.678Z,1.80
2017-11-22T15:47:10.130Z,3.57
2017-11-22T15:49:38.903Z,2.67
2017-11-22T15:52:07.394Z,3.27
2017-11-22T15:54:35.850Z,4.13
2017-11-22T15:57:04.957Z,3.60
2017-11-22T15:59:33.628Z,4.77
2017-11-22T16:02:02.689Z,5.80
2017-11-22T16:04:31.111Z,4.10
2017-11-22T16:06:59.507Z,5.03
2017-11-22T16:09:27.865Z,6.40
2017-11-22T16:11:57.930Z,8.07
2017-11-22T16:14:26.245Z,6.60
2017-11-22T16:16:58.067Z,6.90
2017-11-22T16:19:26.474Z,6.17
2017-11-22T16:21:54.845Z,6.17
2017-11-22T16:24:23.265Z,4.47
2017-11-22T16:26:51.637Z,6.40
2017-11-22T16:29:20.133Z,6.10
2017-11-22T16:31:48.524Z,5.33
2017-11-22T16:34:16.921Z,4.57
2017-11-22T16:36:45.504Z,4.40
2017-11-22T16:39:13.828Z,4.53
2017-11-22T16:41:42.181Z,4.23
2017-11-22T16:44:10.730Z,3.93
2017-11-22T16:46:39.117Z,3.33
2017-11-22T16:49:07.484Z,4.30
2017-11-22T16:51:35.913Z,3.20
2017-11-22T16:54:04.377Z,3.20
2017-11-22T16:56:32.857Z,4.93
2017-11-22T16:59:01.511Z,4.40
2017-11-22T17:01:29.906Z,4.63
2017-11-22T17:03:58.323Z,4.00
2017-11-22T17:06:26.701Z,4.07
2017-11-22T17:08:55.214Z,4.40
2017-11-22T17:11:23.690Z,4.17
2017-11-22T17:13:52.163Z,4.10
2017-11-22T17:16:20.571Z,4.50
2017-11-22T17:18:48.981Z,4.87
2017-11-22T17:21:17.402Z,4.47
2017-11-22T17:23:45.904Z,2.83
2017-11-22T17:26:14.518Z,4.33
2017-11-22T17:28:43.092Z,4.27
2017-11-22T17:31:11.571Z,3.20
2017-11-22T17:33:40.057Z,4.37
2017-11-22T17:36:08.505Z,3.80
2017-11-22T17:38:36.992Z,5.13
2017-11-22T17:41:05.487Z,4.60
2017-11-22T17:43:33.895Z,4.83
2017-11-22T17:46:02.502Z,3.90
2017-11-22T17:48:30.917Z,3.70
2017-11-22T17:50:59.336Z,3.93
2017-11-22T17:53:27.839Z,3.87
2017-11-22T17:55:56.280Z,5.80
2017-11-22T17:58:24.642Z,5.47
2017-11-22T18:00:55.417Z,6.17
2017-11-22T18:03:25.338Z,5.33
2017-11-22T18:05:54.110Z,3.40
2017-11-22T18:08:22.737Z,4.63
2017-11-22T18:10:52.104Z,4.50
2017-11-22T18:13:20.658Z,3.70
2017-11-22T18:15:49.052Z,2.70
2017-11-22T18:18:18.468Z,3.20
2017-11-22T18:20:47.473Z,3.67
2017-11-22T18:23:18.228Z,3.10
2017-11-22T18:25:46.587Z,3.87
2017-11-22T18:28:15.030Z,3.17
2017-11-22T18:30:43.666Z,2.70
2017-11-22T18:33:12.441Z,3.00
2017-11-22T18:35:40.826Z,3.77
2017-11-22T18:38:09.433Z,3.70
2017-11-22T18:40:37.904Z,4.20
2017-11-22T18:43:06.470Z,2.83
2017-11-22T18:45:35.006Z,3.30
2017-11-22T18:48:03.409Z,4.23
2017-11-22T18:50:31.841Z,3.83
2017-11-22T18:53:00.285Z,3.93
2017-11-22T18:55:28.893Z,3.47
2017-11-22T18:57:57.641Z,4.10
2017-11-22T19:00:26.035Z,2.73
2017-11-22T19:02:54.430Z,3.47
2017-11-22T19:05:22.721Z,4.23
2017-11-22T19:07:51.077Z,5.00
2017-11-22T19:10:19.405Z,4.37
2017-11-22T19:12:47.736Z,4.63
2017-11-22T19:15:16.087Z,4.87
2017-11-22T19:17:44.384Z,4.20
2017-11-22T19:20:12.925Z,4.80
2017-11-22T19:22:41.397Z,3.60
2017-11-22T19:25:09.736Z,4.07
2017-11-22T19:27:38.108Z,3.50
2017-11-22T19:30:06.441Z,4.17
2017-11-22T19:32:34.768Z,4.73
2017-11-22T19:35:03.205Z,4.10
2017-11-22T19:37:31.642Z,3.70
2017-11-22T19:40:00.023Z,3.83
2017-11-22T19:42:28.397Z,2.67
2017-11-22T19:44:56.874Z,3.00
2017-11-22T19:47:25.201Z,2.70
2017-11-22T19:49:53.514Z,2.90
2017-11-22T19:52:21.910Z,2.97
2017-11-22T19:54:50.313Z,2.70
2017-11-22T19:57:18.732Z,3.40
2017-11-22T19:59:47.074Z,3.03
2017-11-22T20:02:15.452Z,3.70
2017-11-22T20:04:43.776Z,3.23
2017-11-22T20:07:23.852Z,3.40
2017-11-22T20:09:52.185Z,3.50
2017-11-22T20:12:20.514Z,3.23
2017-11-22T20:14:48.858Z,3.50
2017-11-22T20:17:17.194Z,3.80
2017-11-22T20:19:45.525Z,4.03
2017-11-22T20:22:13.966Z,4.00
2017-11-22T20:24:42.286Z,3.57
2017-11-22T20:27:10.898Z,3.80
2017-11-22T20:29:39.586Z,3.67
2017-11-22T20:32:07.950Z,2.80
2017-11-22T20:34:36.298Z,3.37
2017-11-22T20:37:04.743Z,3.37
2017-11-22T20:39:33.314Z,4.70
2017-11-22T20:42:01.712Z,3.10
2017-11-22T20:44:30.089Z,3.77
2017-11-22T20:46:58.454Z,5.37
2017-11-22T20:49:26.840Z,4.70
2017-11-22T20:51:55.211Z,3.30
2017-11-22T20:54:23.509Z,3.33
2017-11-22T20:56:51.845Z,4.10
2017-11-22T20:59:20.245Z,3.67
2017-11-22T21:01:48.660Z,4.23
2017-11-22T21:04:16.962Z,4.00
2017-11-22T21:06:45.333Z,2.80
2017-11-22T21:09:13.658Z,3.20
2017-11-22T21:11:43.400Z,2.50
2017-11-22T21:14:13.441Z,3.03
2017-11-22T21:16:41.782Z,3.03
2017-11-22T21:19:10.193Z,2.87
2017-11-22T21:21:38.515Z,4.03
2017-11-22T21:24:06.980Z,2.93
2017-11-22T21:26:35.361Z,2.90
2017-11-22T21:29:04.670Z,3.20
2017-11-22T21:31:33.995Z,3.20
2017-11-22T21:34:03.048Z,3.00
2017-11-22T21:36:31.521Z,3.10
2017-11-22T21:38:59.952Z,3.30
2017-11-22T21:41:28.494Z,2.70
2017-11-22T21:43:57.704Z,2.63
2017-11-22T21:46:26.024Z,2.73
2017-11-22T21:48:54.450Z,2.87
2017-11-22T21:51:22.744Z,2.27
2017-11-22T21:53:51.052Z,2.73
2017-11-22T21:56:19.406Z,2.53
2017-11-22T21:58:47.757Z,2.60
2017-11-22T22:01:16.097Z,2.87
2017-11-22T22:03:44.473Z,2.77
2017-11-22T22:06:12.803Z,2.20
2017-11-22T22:08:41.114Z,2.90
2017-11-22T22:11:09.572Z,1.97
2017-11-22T22:13:38.633Z,2.70
2017-11-22T22:16:07.317Z,2.40
2017-11-22T22:18:35.663Z,2.13
2017-11-22T22:21:03.985Z,2.83
2017-11-22T22:23:32.279Z,2.27
2017-11-22T22:26:00.637Z,2.90
2017-11-22T22:28:28.945Z,2.10
2017-11-22T22:30:57.258Z,2.20
2017-11-22T22:33:25.600Z,2.40
2017-11-22T22:35:53.918Z,2.50
2017-11-22T22:38:22.231Z,2.00
2017-11-22T22:40:50.614Z,2.03
2017-11-22T22:43:19.838Z,2.10
2017-11-22T22:45:49.484Z,2.30
2017-11-22T22:48:20.626Z,2.87
2017-11-22T22:50:51.888Z,3.00
2017-11-22T22:53:20.340Z,2.10
2017-11-22T22:55:48.688Z,2.70
2017-11-22T22:58:17.537Z,2.40
2017-11-22T23:00:46.231Z,1.90
2017-11-22T23:03:14.592Z,2.20
2017-11-22T23:05:42.885Z,2.27
2017-11-22T23:08:11.221Z,2.60
2017-11-22T23:10:39.549Z,1.83
2017-11-22T23:13:07.873Z,2.23
2017-11-22T23:15:36.219Z,2.33
2017-11-22T23:18:05.426Z,1.90
2017-11-22T23:20:33.755Z,2.30
2017-11-22T23:23:02.107Z,2.60
2017-11-22T23:25:30.487Z,2.43
2017-11-22T23:27:58.771Z,2.40
2017-11-22T23:30:27.194Z,1.30
2017-11-22T23:32:55.509Z,1.70
2017-11-22T23:35:23.825Z,1.53
2017-11-22T23:37:52.205Z,1.63
2017-11-22T23:40:20.511Z,1.97
2017-11-22T23:42:48.988Z,2.20
2017-11-22T23:45:17.331Z,2.63
2017-11-22T23:47:45.650Z,1.83
2017-11-22T23:50:13.986Z,1.93
2017-11-22T23:52:42.330Z,1.80
2017-11-22T23:55:10.626Z,1.47
2017-11-22T23:57:38.972Z,1.90
